Time;durP1;ratioP1;P1;durP2;ratioP2;P2;SDS_P1;SDS_P2;PMS_P1;PMS_P2;Temp;Humidity;BMP_temperature;BMP_pressure;BME280_temperature;BME280_humidity;BME280_pressure;Samples;Min_cycle;Max_cycle;Signal;HPM_P1;HPM_P2
2022/07/11 00:01:16;;;;;;;0.00;0.00;;;16.70;82.60;;;;;;4989292;28;20495;-70
2022/07/11 00:03:42;;;;;;;0.00;0.00;;;16.70;82.70;;;;;;4986378;28;20053;-70
2022/07/11 00:06:07;;;;;;;0.00;0.00;;;16.70;83.00;;;;;;4980335;28;20038;-70
2022/07/11 00:08:33;;;;;;;0.00;0.00;;;16.70;83.10;;;;;;4980747;28;20034;-70
2022/07/11 00:10:59;;;;;;;0.00;0.00;;;16.60;83.00;;;;;;4989237;28;20108;-70
2022/07/11 00:13:24;;;;;;;0.00;0.00;;;16.70;83.30;;;;;;4984230;28;20152;-70
2022/07/11 00:15:50;;;;;;;0.00;0.00;;;16.60;83.20;;;;;;4977243;28;20047;-70
2022/07/11 00:18:15;;;;;;;0.00;0.00;;;16.60;83.30;;;;;;4983135;28;20054;-70
2022/07/11 00:20:41;;;;;;;0.00;0.00;;;16.60;83.40;;;;;;4981521;28;20043;-70
2022/07/11 00:23:07;;;;;;;0.00;0.00;;;16.60;83.20;;;;;;4973707;28;20057;-70
2022/07/11 00:25:33;;;;;;;0.00;0.00;;;16.50;84.30;;;;;;4977064;28;20050;-71
2022/07/11 00:27:58;;;;;;;0.00;0.00;;;16.50;84.10;;;;;;4989198;28;20439;-71
2022/07/11 00:30:24;;;;;;;0.00;0.00;;;16.50;85.10;;;;;;4988940;28;20085;-70
2022/07/11 00:32:50;;;;;;;0.00;0.00;;;16.40;85.30;;;;;;4987461;28;20070;-70
2022/07/11 00:35:15;;;;;;;0.00;0.00;;;16.30;85.40;;;;;;4986915;28;20035;-70
2022/07/11 00:37:41;;;;;;;0.00;0.00;;;16.40;85.60;;;;;;4990877;28;20038;-71
2022/07/11 00:40:08;;;;;;;0.00;0.00;;;16.30;86.20;;;;;;4992802;28;20050;-70
2022/07/11 00:42:33;;;;;;;0.00;0.00;;;16.30;86.40;;;;;;4988724;28;20052;-70
2022/07/11 00:44:59;;;;;;;0.00;0.00;;;16.20;86.40;;;;;;4975170;28;20125;-70
2022/07/11 00:47:25;;;;;;;0.00;0.00;;;16.20;86.70;;;;;;4992933;28;20496;-70
2022/07/11 00:49:50;;;;;;;0.00;0.00;;;16.20;87.10;;;;;;4991771;28;20046;-71
2022/07/11 00:52:16;;;;;;;0.00;0.00;;;16.10;87.40;;;;;;4988240;28;20047;-70
2022/07/11 00:54:44;;;;;;;0.00;0.00;;;16.10;87.50;;;;;;4988878;28;20046;-70
2022/07/11 00:57:10;;;;;;;0.00;0.00;;;16.10;87.40;;;;;;4973206;28;20765;-70
2022/07/11 00:59:36;;;;;;;0.00;0.00;;;16.10;87.70;;;;;;4985668;28;20062;-70
2022/07/11 01:02:02;;;;;;;0.00;0.00;;;16.10;88.00;;;;;;4980375;28;20122;-70
2022/07/11 01:04:27;;;;;;;0.00;0.00;;;16.10;87.90;;;;;;4990722;28;20495;-70
2022/07/11 01:06:53;;;;;;;0.00;0.00;;;16.00;87.80;;;;;;4992158;28;20034;-70
2022/07/11 01:09:18;;;;;;;0.00;0.00;;;16.10;87.90;;;;;;4991858;28;20412;-71
2022/07/11 01:11:44;;;;;;;0.00;0.00;;;16.10;88.20;;;;;;4990556;28;20054;-71
2022/07/11 01:14:10;;;;;;;0.00;0.00;;;16.10;88.40;;;;;;4992093;28;20487;-71
2022/07/11 01:16:35;;;;;;;0.00;0.00;;;16.10;88.50;;;;;;4988998;28;20411;-71
2022/07/11 01:19:01;;;;;;;0.00;0.00;;;16.00;89.20;;;;;;4988376;28;20050;-70
2022/07/11 01:21:30;;;;;;;0.08;0.08;;;15.90;89.30;;;;;;4991690;28;20046;-71
2022/07/11 01:24:00;;;;;;;0.00;0.00;;;15.90;89.50;;;;;;4986335;28;20039;-71
2022/07/11 01:26:27;;;;;;;0.00;0.00;;;15.90;89.60;;;;;;4976924;28;20042;-71
2022/07/11 01:28:55;;;;;;;0.00;0.00;;;15.80;89.90;;;;;;4988593;28;20046;-71
2022/07/11 01:31:20;;;;;;;0.00;0.00;;;15.90;90.10;;;;;;4972686;28;20050;-72
2022/07/11 01:33:46;;;;;;;0.00;0.00;;;15.90;90.10;;;;;;4983058;28;20112;-71
2022/07/11 01:36:12;;;;;;;0.00;0.00;;;15.90;90.10;;;;;;4988102;28;20095;-72
2022/07/11 01:38:39;;;;;;;0.00;0.00;;;15.90;90.00;;;;;;4990256;28;20050;-72
2022/07/11 01:41:05;;;;;;;0.00;0.00;;;15.90;90.10;;;;;;4991560;28;20745;-71
2022/07/11 01:43:30;;;;;;;0.00;0.00;;;15.90;90.20;;;;;;4988081;28;20050;-72
2022/07/11 01:45:56;;;;;;;0.00;0.00;;;15.90;90.20;;;;;;4991139;28;20048;-71
2022/07/11 01:48:22;;;;;;;0.10;0.10;;;15.90;90.30;;;;;;4990853;28;20066;-71
2022/07/11 01:50:49;;;;;;;0.00;0.00;;;15.80;90.80;;;;;;4990367;28;20043;-71
2022/07/11 01:53:15;;;;;;;0.00;0.00;;;15.80;91.00;;;;;;4983813;28;20121;-72
2022/07/11 01:55:41;;;;;;;0.98;0.28;;;15.80;91.10;;;;;;4986224;28;20077;-71
2022/07/11 01:58:07;;;;;;;0.00;0.00;;;15.80;91.30;;;;;;4977799;28;20201;-71
2022/07/11 02:00:32;;;;;;;0.00;0.00;;;15.80;91.30;;;;;;4982414;28;20567;-72
2022/07/11 02:02:58;;;;;;;0.00;0.00;;;15.80;91.30;;;;;;4987099;28;20081;-71
2022/07/11 02:05:24;;;;;;;0.00;0.00;;;15.90;91.40;;;;;;4989487;28;20078;-71
2022/07/11 02:10:33;;;;;;;0.00;0.00;;;15.80;91.30;;;;;;4991220;28;20054;-71
2022/07/11 02:13:00;;;;;;;0.00;0.00;;;15.90;91.30;;;;;;4990641;28;20047;-71
2022/07/11 02:15:30;;;;;;;0.00;0.00;;;15.80;91.40;;;;;;4984872;28;20174;-71
2022/07/11 02:17:56;;;;;;;0.00;0.00;;;15.90;91.50;;;;;;4972011;28;20086;-72
2022/07/11 02:20:22;;;;;;;0.00;0.00;;;15.80;91.50;;;;;;4983956;28;20147;-71
2022/07/11 02:22:48;;;;;;;0.00;0.00;;;15.80;91.50;;;;;;4986267;28;20920;-71
2022/07/11 02:25:15;;;;;;;0.00;0.00;;;15.80;91.70;;;;;;4983717;28;20122;-71
2022/07/11 02:27:40;;;;;;;0.00;0.00;;;15.80;91.70;;;;;;4971208;28;20039;-71
2022/07/11 02:30:07;;;;;;;0.00;0.00;;;15.80;91.80;;;;;;4975625;28;20046;-71
2022/07/11 02:32:32;;;;;;;0.00;0.00;;;15.80;91.80;;;;;;4973639;28;20050;-71
2022/07/11 02:34:58;;;;;;;0.00;0.00;;;15.80;91.90;;;;;;4980321;28;20043;-71
2022/07/11 02:37:24;;;;;;;0.00;0.00;;;15.80;92.10;;;;;;4990688;28;20081;-71
2022/07/11 02:39:49;;;;;;;0.00;0.00;;;15.80;92.10;;;;;;4988427;28;20086;-70
2022/07/11 02:42:15;;;;;;;0.00;0.00;;;15.80;92.00;;;;;;4981726;28;20038;-71
2022/07/11 02:44:41;;;;;;;0.00;0.00;;;15.70;92.00;;;;;;4990167;28;20089;-70
2022/07/11 02:47:06;;;;;;;0.00;0.00;;;15.70;92.30;;;;;;4990684;28;20730;-71
2022/07/11 02:49:32;;;;;;;0.00;0.00;;;15.80;92.30;;;;;;4989189;28;20086;-71
2022/07/11 02:51:58;;;;;;;0.00;0.00;;;15.80;92.40;;;;;;4979934;28;20046;-70
2022/07/11 02:54:24;;;;;;;0.00;0.00;;;15.70;92.40;;;;;;4975374;28;20157;-70
2022/07/11 02:56:49;;;;;;;0.00;0.00;;;15.70;92.50;;;;;;4990532;28;20559;-70
2022/07/11 02:59:15;;;;;;;0.00;0.00;;;15.60;92.50;;;;;;4990202;28;20040;-71
2022/07/11 03:01:41;;;;;;;0.00;0.00;;;15.70;92.50;;;;;;4987808;28;20384;-70
2022/07/11 03:04:08;;;;;;;0.00;0.00;;;15.70;92.40;;;;;;4988119;28;20034;-70
2022/07/11 03:06:33;;;;;;;0.00;0.00;;;15.80;92.40;;;;;;5000483;28;20096;-70
2022/07/11 03:08:59;;;;;;;0.00;0.00;;;15.70;92.40;;;;;;4974775;28;20055;-70
2022/07/11 03:11:25;;;;;;;0.00;0.00;;;15.80;92.40;;;;;;4981193;28;20077;-71
2022/07/11 03:13:50;;;;;;;0.00;0.00;;;15.80;92.30;;;;;;4990116;28;20138;-71
2022/07/11 03:16:16;;;;;;;0.00;0.00;;;15.80;92.40;;;;;;4982875;28;20542;-71
2022/07/11 03:18:42;;;;;;;0.00;0.00;;;15.80;92.30;;;;;;4970888;28;20050;-71
2022/07/11 03:21:08;;;;;;;0.00;0.00;;;15.70;92.20;;;;;;4983079;28;20050;-70
2022/07/11 03:23:34;;;;;;;0.00;0.00;;;15.70;92.20;;;;;;4989533;28;20046;-71
2022/07/11 03:26:00;;;;;;;0.00;0.00;;;15.60;92.20;;;;;;4989506;28;20042;-71
2022/07/11 03:28:26;;;;;;;0.03;0.03;;;15.60;92.10;;;;;;4979830;28;20049;-71
2022/07/11 03:30:51;;;;;;;0.00;0.00;;;15.60;92.10;;;;;;4980875;28;20089;-71
2022/07/11 03:33:17;;;;;;;0.05;0.05;;;15.60;92.10;;;;;;4988582;28;20046;-71
2022/07/11 03:35:42;;;;;;;0.00;0.00;;;15.60;92.10;;;;;;4981656;28;20046;-71
2022/07/11 03:38:09;;;;;;;0.00;0.00;;;15.60;92.10;;;;;;4989478;28;20062;-71
2022/07/11 03:40:35;;;;;;;0.00;0.00;;;15.60;92.00;;;;;;4988824;28;20034;-71
2022/07/11 03:43:01;;;;;;;0.00;0.00;;;15.70;92.00;;;;;;4989820;28;20121;-71
2022/07/11 03:45:27;;;;;;;0.00;0.00;;;15.60;91.90;;;;;;4988372;28;20082;-71
2022/07/11 03:47:53;;;;;;;0.00;0.00;;;15.60;92.00;;;;;;4988608;28;20150;-71
2022/07/11 03:50:19;;;;;;;0.00;0.00;;;15.70;91.90;;;;;;4975165;28;20129;-71
2022/07/11 03:52:45;;;;;;;0.00;0.00;;;15.70;92.00;;;;;;4973504;28;20050;-71
2022/07/11 03:55:10;;;;;;;0.00;0.00;;;15.60;92.00;;;;;;4970145;28;20047;-71
2022/07/11 03:57:39;;;;;;;0.00;0.00;;;15.60;92.10;;;;;;4987580;28;20059;-71
2022/07/11 04:00:06;;;;;;;0.00;0.00;;;15.70;92.00;;;;;;4985331;28;20044;-71
2022/07/11 04:02:32;;;;;;;0.00;0.00;;;15.60;92.10;;;;;;4988700;28;20046;-70
2022/07/11 04:04:58;;;;;;;0.00;0.00;;;15.60;92.20;;;;;;4988478;28;20058;-71
2022/07/11 04:07:23;;;;;;;0.00;0.00;;;15.70;92.20;;;;;;4984103;28;20458;-71
2022/07/11 04:09:49;;;;;;;0.00;0.00;;;15.70;92.10;;;;;;4980827;28;20047;-71
2022/07/11 04:12:17;;;;;;;0.00;0.00;;;15.60;92.20;;;;;;4976740;28;20051;-70
2022/07/11 04:14:43;;;;;;;0.00;0.00;;;15.70;92.30;;;;;;4977689;28;20049;-71
2022/07/11 04:17:09;;;;;;;0.00;0.00;;;15.60;92.30;;;;;;4974362;28;20506;-71
2022/07/11 04:19:35;;;;;;;0.00;0.00;;;15.60;92.40;;;;;;4974195;28;20061;-71
2022/07/11 04:22:00;;;;;;;0.00;0.00;;;15.70;92.40;;;;;;4986827;28;20039;-71
2022/07/11 04:24:26;;;;;;;0.00;0.00;;;15.70;92.40;;;;;;4993199;28;20038;-71
2022/07/11 04:26:52;;;;;;;0.00;0.00;;;15.70;92.40;;;;;;4989234;28;20051;-71
2022/07/11 04:29:17;;;;;;;0.00;0.00;;;15.70;92.40;;;;;;4990772;28;20082;-71
2022/07/11 04:31:43;;;;;;;0.00;0.00;;;15.70;92.40;;;;;;4991552;28;20053;-71
2022/07/11 04:34:09;;;;;;;0.00;0.00;;;15.80;92.40;;;;;;4993005;28;20043;-72
2022/07/11 04:36:34;;;;;;;0.00;0.00;;;15.70;92.50;;;;;;4991736;28;20038;-70
2022/07/11 04:39:00;;;;;;;0.00;0.00;;;15.70;92.40;;;;;;4984790;28;20105;-71
2022/07/11 04:41:25;;;;;;;0.00;0.00;;;15.80;92.40;;;;;;4992763;28;20061;-71
2022/07/11 04:43:51;;;;;;;0.00;0.00;;;15.80;92.40;;;;;;4992834;28;20046;-71
2022/07/11 04:46:17;;;;;;;0.00;0.00;;;15.80;92.30;;;;;;5007435;28;20038;-70
2022/07/11 04:48:42;;;;;;;0.00;0.00;;;15.80;92.30;;;;;;4980887;28;20161;-70
2022/07/11 04:51:08;;;;;;;0.00;0.00;;;15.70;92.40;;;;;;4989135;28;20035;-70
2022/07/11 04:53:34;;;;;;;0.00;0.00;;;15.60;92.50;;;;;;4975200;28;20126;-70
2022/07/11 04:56:00;;;;;;;0.00;0.00;;;15.70;92.50;;;;;;4971977;28;20074;-70
2022/07/11 04:58:26;;;;;;;0.00;0.00;;;15.70;92.50;;;;;;4989504;28;20092;-70
2022/07/11 05:00:52;;;;;;;0.00;0.00;;;15.80;92.60;;;;;;4987126;28;20077;-70
2022/07/11 05:03:19;;;;;;;0.00;0.00;;;15.80;92.60;;;;;;4989529;28;20101;-70
2022/07/11 05:05:45;;;;;;;0.43;0.43;;;15.80;92.50;;;;;;4978823;28;20051;-71
2022/07/11 05:08:11;;;;;;;0.00;0.00;;;15.80;92.50;;;;;;4991506;28;20062;-70
2022/07/11 05:10:37;;;;;;;0.00;0.00;;;15.80;92.50;;;;;;4979858;28;20041;-70
2022/07/11 05:13:03;;;;;;;0.00;0.00;;;15.80;92.50;;;;;;4990158;28;20057;-71
2022/07/11 05:15:29;;;;;;;0.00;0.00;;;15.80;92.30;;;;;;4987169;28;20184;-71
2022/07/11 05:17:54;;;;;;;0.20;0.20;;;15.80;92.40;;;;;;4984699;28;20516;-71
2022/07/11 05:20:20;;;;;;;0.00;0.00;;;15.80;92.30;;;;;;4991396;28;20042;-70
2022/07/11 05:22:46;;;;;;;0.00;0.00;;;15.80;92.30;;;;;;4982901;28;20109;-69
2022/07/11 05:25:12;;;;;;;0.00;0.00;;;15.80;92.20;;;;;;4986139;28;20054;-69
2022/07/11 05:27:37;;;;;;;0.00;0.00;;;15.90;92.10;;;;;;4988533;28;20131;-67
2022/07/11 05:30:04;;;;;;;0.00;0.00;;;15.90;91.80;;;;;;4990433;28;20050;-67
2022/07/11 05:32:29;;;;;;;0.00;0.00;;;15.80;91.70;;;;;;4986468;28;20054;-67
2022/07/11 05:34:58;;;;;;;0.00;0.00;;;15.90;91.50;;;;;;4991234;28;20176;-68
2022/07/11 05:37:24;;;;;;;0.00;0.00;;;15.90;91.50;;;;;;4983529;28;20120;-67
2022/07/11 05:39:50;;;;;;;0.00;0.00;;;16.00;91.40;;;;;;4982643;28;20659;-67
2022/07/11 05:42:16;;;;;;;0.00;0.00;;;16.00;91.20;;;;;;4991922;28;20062;-66
2022/07/11 05:44:42;;;;;;;0.00;0.00;;;16.00;91.20;;;;;;4980945;28;20057;-71
2022/07/11 05:47:08;;;;;;;0.00;0.00;;;16.00;91.30;;;;;;4988563;28;20050;-72
2022/07/11 05:49:34;;;;;;;0.00;0.00;;;16.00;91.20;;;;;;4985373;28;20185;-72
2022/07/11 05:51:59;;;;;;;0.20;0.13;;;16.10;91.30;;;;;;4983802;28;20397;-71
2022/07/11 05:54:25;;;;;;;0.00;0.00;;;16.10;91.30;;;;;;4984126;28;20043;-71
2022/07/11 05:56:51;;;;;;;0.00;0.00;;;16.10;91.10;;;;;;4971942;28;20047;-71
2022/07/11 05:59:16;;;;;;;0.00;0.00;;;16.10;91.10;;;;;;4979642;28;20050;-72
2022/07/11 06:01:42;;;;;;;0.00;0.00;;;16.20;91.10;;;;;;4971824;28;20065;-71
2022/07/11 06:04:07;;;;;;;0.00;0.00;;;16.20;91.00;;;;;;4990511;28;20121;-71
2022/07/11 06:06:33;;;;;;;0.00;0.00;;;16.10;91.10;;;;;;4981197;28;20129;-72
2022/07/11 06:08:59;;;;;;;0.00;0.00;;;16.10;91.20;;;;;;4987500;28;20038;-72
2022/07/11 06:11:25;;;;;;;0.00;0.00;;;16.20;91.20;;;;;;4990262;28;20118;-71
2022/07/11 06:13:50;;;;;;;0.00;0.00;;;16.20;91.20;;;;;;4979991;28;20122;-72
2022/07/11 06:16:16;;;;;;;0.00;0.00;;;16.20;91.00;;;;;;5000151;28;20042;-71
2022/07/11 06:18:42;;;;;;;0.00;0.00;;;16.30;91.00;;;;;;4999016;28;20054;-72
2022/07/11 06:21:08;;;;;;;0.00;0.00;;;16.20;90.80;;;;;;4981863;28;20046;-72
2022/07/11 06:23:34;;;;;;;0.00;0.00;;;16.20;90.70;;;;;;4985929;28;20427;-70
2022/07/11 06:26:01;;;;;;;0.00;0.00;;;16.10;90.90;;;;;;4988312;28;20415;-70
2022/07/11 06:28:27;;;;;;;0.00;0.00;;;16.20;90.90;;;;;;4982837;28;20125;-71
2022/07/11 06:30:53;;;;;;;0.00;0.00;;;16.30;90.90;;;;;;4969826;28;20058;-69
2022/07/11 06:33:19;;;;;;;0.05;0.05;;;16.30;90.70;;;;;;4976095;28;20042;-70
2022/07/11 06:35:46;;;;;;;0.00;0.00;;;16.40;90.60;;;;;;4990564;28;20042;-70
2022/07/11 06:38:12;;;;;;;0.00;0.00;;;16.40;90.40;;;;;;4987008;28;20038;-68
2022/07/11 06:40:39;;;;;;;0.00;0.00;;;16.50;90.40;;;;;;4981941;28;20070;-69
2022/07/11 06:43:06;;;;;;;0.00;0.00;;;16.50;90.10;;;;;;4966550;28;20479;-69
2022/07/11 06:45:33;;;;;;;0.00;0.00;;;16.60;90.00;;;;;;4989019;28;20057;-69
2022/07/11 06:47:58;;;;;;;0.08;0.08;;;16.60;89.70;;;;;;4987346;28;20491;-68
2022/07/11 06:50:24;;;;;;;0.00;0.00;;;16.60;89.30;;;;;;4985503;28;20054;-68
2022/07/11 06:52:49;;;;;;;0.00;0.00;;;16.60;89.40;;;;;;4992469;28;20057;-69
2022/07/11 06:55:16;;;;;;;0.00;0.00;;;16.70;89.30;;;;;;5005601;28;20495;-68
2022/07/11 06:57:42;;;;;;;0.00;0.00;;;16.90;89.20;;;;;;5008943;28;20108;-68
2022/07/11 07:00:08;;;;;;;0.00;0.00;;;16.90;89.00;;;;;;5009896;28;20038;-68
2022/07/11 07:02:34;;;;;;;0.00;0.00;;;17.00;88.40;;;;;;4993272;28;20053;-66
2022/07/11 07:05:00;;;;;;;0.00;0.00;;;17.10;88.10;;;;;;4983707;28;20046;-67
2022/07/11 07:07:27;;;;;;;0.00;0.00;;;17.10;87.50;;;;;;4982957;28;20568;-68
2022/07/11 07:09:53;;;;;;;0.00;0.00;;;17.00;87.30;;;;;;4989462;28;20090;-68
2022/07/11 07:12:20;;;;;;;0.00;0.00;;;17.00;87.60;;;;;;4976072;28;20050;-67
2022/07/11 07:14:46;;;;;;;0.00;0.00;;;17.10;87.50;;;;;;4988122;28;20774;-68
2022/07/11 07:17:12;;;;;;;0.00;0.00;;;17.10;87.20;;;;;;5001747;28;20050;-68
2022/07/11 07:19:38;;;;;;;0.00;0.00;;;17.10;87.20;;;;;;4996749;28;20495;-70
2022/07/11 07:22:05;;;;;;;0.00;0.00;;;17.10;87.30;;;;;;4989034;28;20047;-70
2022/07/11 07:24:31;;;;;;;0.00;0.00;;;17.10;87.40;;;;;;4987059;28;20625;-67
2022/07/11 07:26:57;;;;;;;0.00;0.00;;;17.20;87.00;;;;;;4969627;28;20051;-68
2022/07/11 07:29:23;;;;;;;0.00;0.00;;;17.10;86.90;;;;;;4987975;28;20050;-69
2022/07/11 07:31:49;;;;;;;0.00;0.00;;;17.30;87.10;;;;;;4995935;28;20042;-68
2022/07/11 07:34:14;;;;;;;0.00;0.00;;;17.30;87.20;;;;;;4999962;28;20550;-68
2022/07/11 07:36:40;;;;;;;0.00;0.00;;;17.30;86.40;;;;;;5000485;28;20061;-68
2022/07/11 07:39:06;;;;;;;0.00;0.00;;;17.30;86.50;;;;;;4989828;28;20042;-68
2022/07/11 07:41:32;;;;;;;0.00;0.00;;;17.30;86.50;;;;;;4990053;28;20042;-68
2022/07/11 07:43:57;;;;;;;0.00;0.00;;;17.40;86.10;;;;;;4989859;28;20042;-68
2022/07/11 07:46:23;;;;;;;0.00;0.00;;;17.40;86.10;;;;;;4998639;28;20045;-67
2022/07/11 07:48:48;;;;;;;0.00;0.00;;;17.30;85.70;;;;;;5009160;28;20054;-67
2022/07/11 07:51:14;;;;;;;0.00;0.00;;;17.30;85.60;;;;;;5008666;28;20046;-67
2022/07/11 07:53:40;;;;;;;0.00;0.00;;;17.50;85.70;;;;;;5009369;28;20068;-67
2022/07/11 07:56:06;;;;;;;0.00;0.00;;;17.50;85.40;;;;;;5008918;28;20034;-67
2022/07/11 07:58:32;;;;;;;0.00;0.00;;;17.60;85.30;;;;;;4989268;28;20046;-68
2022/07/11 08:03:42;;;;;;;0.00;0.00;;;17.80;84.30;;;;;;4995758;28;20047;-67
2022/07/11 08:06:07;;;;;;;0.00;0.00;;;17.70;84.20;;;;;;4989258;28;20053;-69
2022/07/11 08:08:33;;;;;;;0.00;0.00;;;17.70;84.10;;;;;;4976937;28;20114;-68
2022/07/11 08:11:02;;;;;;;0.00;0.00;;;17.70;83.80;;;;;;4984387;28;20117;-67
2022/07/11 08:13:28;;;;;;;0.00;0.00;;;17.70;84.10;;;;;;4972493;28;20109;-68
2022/07/11 08:15:54;;;;;;;0.00;0.00;;;17.60;84.00;;;;;;4989543;28;20570;-67
2022/07/11 08:18:20;;;;;;;0.00;0.00;;;17.60;84.10;;;;;;5002114;28;20497;-68
2022/07/11 08:20:46;;;;;;;0.00;0.00;;;17.70;84.00;;;;;;5000895;28;20042;-67
2022/07/11 08:23:12;;;;;;;0.00;0.00;;;17.70;83.50;;;;;;4989368;28;20173;-68
2022/07/11 08:25:39;;;;;;;0.00;0.00;;;17.80;83.50;;;;;;4988146;28;20061;-68
2022/07/11 08:28:05;;;;;;;0.00;0.00;;;17.90;83.40;;;;;;4989583;28;20088;-68
2022/07/11 08:30:31;;;;;;;0.00;0.00;;;17.90;83.30;;;;;;4989088;28;20046;-68
2022/07/11 08:32:56;;;;;;;0.00;0.00;;;18.00;83.40;;;;;;4989513;28;20038;-68
2022/07/11 08:35:22;;;;;;;0.00;0.00;;;18.00;83.10;;;;;;4989272;28;20035;-68
2022/07/11 08:37:48;;;;;;;0.00;0.00;;;18.00;83.10;;;;;;4978573;28;20047;-69
2022/07/11 08:40:14;;;;;;;0.00;0.00;;;18.00;83.20;;;;;;4969686;28;20050;-69
2022/07/11 08:42:44;;;;;;;0.00;0.00;;;18.00;82.70;;;;;;4974495;28;20072;-67
2022/07/11 08:45:14;;;;;;;0.00;0.00;;;18.00;82.20;;;;;;4989182;28;20042;-68
2022/07/11 08:47:40;;;;;;;0.00;0.00;;;18.10;82.30;;;;;;4989336;28;20533;-68
2022/07/11 08:50:07;;;;;;;0.00;0.00;;;18.10;82.20;;;;;;4989316;28;20133;-68
2022/07/11 08:52:33;;;;;;;0.00;0.00;;;18.30;82.50;;;;;;4994964;28;20496;-67
2022/07/11 08:54:59;;;;;;;0.00;0.00;;;18.20;82.00;;;;;;4988590;28;20053;-67
2022/07/11 08:57:25;;;;;;;0.00;0.00;;;18.30;82.40;;;;;;4991068;28;20141;-68
2022/07/11 08:59:55;;;;;;;0.00;0.00;;;18.30;82.30;;;;;;4992736;28;20049;-68
2022/07/11 09:02:22;;;;;;;0.00;0.00;;;18.30;82.20;;;;;;4992308;28;20392;-67
2022/07/11 09:04:48;;;;;;;0.00;0.00;;;18.30;82.30;;;;;;4992285;28;20030;-68
2022/07/11 09:07:14;;;;;;;0.00;0.00;;;18.30;82.50;;;;;;4986969;28;20058;-67
2022/07/11 09:09:39;;;;;;;0.00;0.00;;;18.30;82.30;;;;;;4972566;28;20412;-68
2022/07/11 09:12:15;;;;;;;0.00;0.00;;;18.40;82.10;;;;;;4991992;28;20188;-67
2022/07/11 09:14:47;;;;;;;0.00;0.00;;;18.30;80.20;;;;;;4990765;28;20050;-67
2022/07/11 09:17:12;;;;;;;0.00;0.00;;;18.40;81.00;;;;;;4991769;28;20073;-68
2022/07/11 09:19:39;;;;;;;0.00;0.00;;;18.50;81.30;;;;;;4991225;28;20055;-69
2022/07/11 09:25:21;;;;;;;0.00;0.00;;;18.60;80.90;;;;;;4991967;28;20046;-68
2022/07/11 09:27:52;;;;;;;0.00;0.00;;;18.60;80.80;;;;;;4973987;28;20073;-67
2022/07/11 09:30:23;;;;;;;0.00;0.00;;;18.70;79.80;;;;;;4992073;28;20117;-67
2022/07/11 09:33:02;;;;;;;0.00;0.00;;;18.60;79.40;;;;;;4990926;28;20117;-67
2022/07/11 09:35:42;;;;;;;0.00;0.00;;;18.50;80.60;;;;;;4989233;28;20109;-68
2022/07/11 09:38:16;;;;;;;0.00;0.00;;;18.40;81.30;;;;;;4985954;28;20077;-70
2022/07/11 09:40:47;;;;;;;0.20;0.20;;;18.30;81.90;;;;;;4990448;28;20597;-69
2022/07/11 09:43:13;;;;;;;0.00;0.00;;;18.30;82.10;;;;;;4974182;28;20523;-68
2022/07/11 09:45:41;;;;;;;0.00;0.00;;;18.40;82.20;;;;;;5005579;28;20380;-68
2022/07/11 09:48:12;;;;;;;0.00;0.00;;;18.20;82.20;;;;;;5011174;28;20041;-68
2022/07/11 09:50:39;;;;;;;0.00;0.00;;;18.30;82.40;;;;;;4989262;28;20077;-68
2022/07/11 09:53:06;;;;;;;0.00;0.00;;;18.30;82.50;;;;;;4991067;28;20035;-68
2022/07/11 09:55:44;;;;;;;0.30;0.30;;;18.40;82.40;;;;;;4989810;28;20050;-67
2022/07/11 09:58:13;;;;;;;0.00;0.00;;;18.40;82.00;;;;;;4987039;28;20055;-67
2022/07/11 10:00:40;;;;;;;0.00;0.00;;;18.50;82.20;;;;;;4989744;28;20041;-69
2022/07/11 10:03:07;;;;;;;0.00;0.00;;;18.60;81.70;;;;;;4985893;28;20125;-69
2022/07/11 10:05:33;;;;;;;0.00;0.00;;;18.60;81.80;;;;;;4990007;28;20035;-68
2022/07/11 10:08:00;;;;;;;0.00;0.00;;;18.70;81.90;;;;;;4988936;28;20069;-68
2022/07/11 10:10:28;;;;;;;0.00;0.00;;;18.70;81.50;;;;;;4984413;28;20038;-68
2022/07/11 10:12:55;;;;;;;0.00;0.00;;;18.80;81.40;;;;;;4971420;28;20078;-69
2022/07/11 10:15:29;;;;;;;0.00;0.00;;;18.80;80.60;;;;;;4982712;28;20050;-69
2022/07/11 10:18:24;;;;;;;0.00;0.00;;;18.80;80.40;;;;;;4990873;28;20050;-68
2022/07/11 10:20:53;;;;;;;0.00;0.00;;;18.80;80.40;;;;;;4990605;28;20058;-69
2022/07/11 10:23:22;;;;;;;0.00;0.00;;;18.80;80.50;;;;;;4986580;28;20552;-69
2022/07/11 10:26:11;;;;;;;0.00;0.00;;;18.90;81.00;;;;;;4983231;28;20057;-69
2022/07/11 10:28:42;;;;;;;0.00;0.00;;;19.00;81.00;;;;;;4982010;28;20126;-69
2022/07/11 10:31:37;;;;;;;0.00;0.00;;;19.10;80.70;;;;;;4990929;28;20046;-69
2022/07/11 10:34:05;;;;;;;0.00;0.00;;;19.30;80.40;;;;;;4970198;28;20059;-70
2022/07/11 10:36:34;;;;;;;0.00;0.00;;;19.30;80.10;;;;;;4971718;28;20504;-70
2022/07/11 10:39:26;;;;;;;0.00;0.00;;;19.50;79.80;;;;;;4977902;28;20501;-68
2022/07/11 10:42:00;;;;;;;0.00;0.00;;;19.50;79.50;;;;;;4971461;28;20066;-68
2022/07/11 10:44:28;;;;;;;0.00;0.00;;;19.50;79.10;;;;;;4986181;28;20074;-70
2022/07/11 10:46:54;;;;;;;0.00;0.00;;;19.50;79.60;;;;;;4981701;28;20042;-71
2022/07/11 10:49:40;;;;;;;0.00;0.00;;;19.50;79.70;;;;;;4991580;28;20041;-68
2022/07/11 10:52:09;;;;;;;0.00;0.00;;;19.50;79.50;;;;;;4982382;28;20125;-71
2022/07/11 10:55:08;;;;;;;0.00;0.00;;;19.30;79.30;;;;;;4973940;28;20563;-70
2022/07/11 10:58:01;;;;;;;0.00;0.00;;;19.20;80.00;;;;;;4969481;28;20038;-70
2022/07/11 11:00:28;;;;;;;0.00;0.00;;;19.20;80.20;;;;;;4988232;28;20567;-69
2022/07/11 11:03:07;;;;;;;0.00;0.00;;;19.30;80.30;;;;;;4986797;28;20058;-70
2022/07/11 11:05:49;;;;;;;0.00;0.00;;;19.30;79.90;;;;;;5003502;28;20049;-69
2022/07/11 11:08:36;;;;;;;0.00;0.00;;;19.20;79.90;;;;;;4999816;28;20495;-69
2022/07/11 11:11:04;;;;;;;0.00;0.00;;;19.20;79.30;;;;;;4992064;28;20049;-70
2022/07/11 11:13:31;;;;;;;0.00;0.00;;;19.20;79.30;;;;;;5001936;28;20038;-69
2022/07/11 11:15:58;;;;;;;0.00;0.00;;;19.30;79.70;;;;;;4996747;28;20034;-70
2022/07/11 11:18:26;;;;;;;0.00;0.00;;;19.20;79.00;;;;;;4985920;28;20050;-70
2022/07/11 11:21:07;;;;;;;0.00;0.00;;;19.30;79.40;;;;;;4986743;28;20042;-71
2022/07/11 11:24:00;;;;;;;0.00;0.00;;;19.30;79.20;;;;;;4994288;28;20506;-70
2022/07/11 11:26:45;;;;;;;0.00;0.00;;;19.40;79.60;;;;;;4967403;28;20066;-70
2022/07/11 11:29:11;;;;;;;0.00;0.00;;;19.40;79.30;;;;;;4974218;28;20462;-69
2022/07/11 11:31:37;;;;;;;0.00;0.00;;;19.40;79.80;;;;;;4989690;28;20108;-70
2022/07/11 11:34:04;;;;;;;0.00;0.00;;;19.30;79.70;;;;;;4989656;28;20772;-70
2022/07/11 11:36:30;;;;;;;0.00;0.00;;;19.30;80.00;;;;;;4988336;28;20548;-70
2022/07/11 11:38:56;;;;;;;0.00;0.00;;;19.30;79.80;;;;;;4987953;28;20053;-70
2022/07/11 11:41:24;;;;;;;0.00;0.00;;;19.30;79.70;;;;;;4971331;28;20038;-70
2022/07/11 11:43:51;;;;;;;0.00;0.00;;;19.30;79.90;;;;;;4989544;28;20555;-68
2022/07/11 11:46:17;;;;;;;0.00;0.00;;;19.40;79.80;;;;;;4988922;28;20049;-69
2022/07/11 11:48:45;;;;;;;0.00;0.00;;;19.40;79.50;;;;;;4969291;28;20849;-70
2022/07/11 11:51:16;;;;;;;0.00;0.00;;;19.30;79.30;;;;;;4988897;28;20042;-68
2022/07/11 11:53:47;;;;;;;0.00;0.00;;;19.30;79.30;;;;;;4977353;28;20043;-68
2022/07/11 11:56:29;;;;;;;0.00;0.00;;;19.40;79.30;;;;;;4989688;28;20051;-68
2022/07/11 11:59:12;;;;;;;0.00;0.00;;;19.50;79.40;;;;;;4997047;28;20048;-69
2022/07/11 12:01:43;;;;;;;0.00;0.00;;;19.60;78.50;;;;;;5003196;28;20503;-69
2022/07/11 12:04:10;;;;;;;0.00;0.00;;;19.60;78.50;;;;;;4955288;28;20042;-68
2022/07/11 12:06:37;;;;;;;0.00;0.00;;;19.60;79.00;;;;;;4970246;28;20102;-68
2022/07/11 12:09:04;;;;;;;0.00;0.00;;;19.60;78.70;;;;;;4970342;28;20046;-68
2022/07/11 12:11:31;;;;;;;0.00;0.00;;;19.60;78.40;;;;;;4987866;28;20546;-69
2022/07/11 12:14:04;;;;;;;0.00;0.00;;;19.70;78.80;;;;;;4991446;28;20046;-69
2022/07/11 12:16:44;;;;;;;0.00;0.00;;;19.80;78.60;;;;;;5009198;28;20058;-68
2022/07/11 12:19:14;;;;;;;0.00;0.00;;;19.70;78.00;;;;;;5000548;28;20129;-69
2022/07/11 12:22:00;;;;;;;0.00;0.00;;;19.70;77.30;;;;;;4988117;28;20078;-68
2022/07/11 12:24:26;;;;;;;0.00;0.00;;;19.80;77.20;;;;;;4987957;28;20070;-69
2022/07/11 12:26:52;;;;;;;0.00;0.00;;;19.70;76.60;;;;;;4987371;28;20530;-69
2022/07/11 12:29:22;;;;;;;0.00;0.00;;;19.60;77.40;;;;;;4988154;28;20053;-68
2022/07/11 12:31:53;;;;;;;0.00;0.00;;;19.70;76.90;;;;;;4988873;28;20125;-69
2022/07/11 12:34:23;;;;;;;0.00;0.00;;;19.80;77.50;;;;;;4995631;28;20108;-69
2022/07/11 12:36:49;;;;;;;0.00;0.00;;;19.90;77.80;;;;;;4990248;28;20042;-69
2022/07/11 12:39:25;;;;;;;0.63;0.52;;;20.00;77.20;;;;;;4991960;28;20507;-69
2022/07/11 12:41:55;;;;;;;0.15;0.15;;;20.10;77.20;;;;;;4991680;28;20420;-69
2022/07/11 12:47:13;;;;;;;0.00;0.00;;;20.00;77.80;;;;;;4971914;28;20085;-70
2022/07/11 12:49:44;;;;;;;0.00;0.00;;;20.00;77.90;;;;;;4977920;28;20321;-69
2022/07/11 12:52:10;;;;;;;0.00;0.00;;;20.00;77.40;;;;;;4992101;28;20094;-69
2022/07/11 12:54:36;;;;;;;0.00;0.00;;;19.80;77.10;;;;;;4992096;28;20054;-69
2022/07/11 12:57:02;;;;;;;0.00;0.00;;;19.80;77.50;;;;;;4991857;28;20054;-69
2022/07/11 12:59:29;;;;;;;0.00;0.00;;;19.80;78.00;;;;;;4992099;28;20046;-70
2022/07/11 13:02:12;;;;;;;0.00;0.00;;;19.90;77.80;;;;;;4992224;28;20054;-70